Santa Elena, Texas
Current Conditions -  °F | °C
As of 2:15 PM on Thursday 30 Oct 2014 (Local Time) from KEBG Reporting Station
Clear Clear  
Wind Chill: 87°   Ceiling: Unl
Heat Index: 88°   Visibility: 10mi
Dew Point: 64°   Wind: 3mph
Humidity: 47%   Direction: 360°N
Pressure: 30.03"   Gusts: NA
Location:  26.76°N, 98.49°W
Report Text: KEBG 301915Z AUTO 36003KT 10SM CLR 30/18 A3003 RMK AO2 T03030180
Loading
Personal Weather Stations






























Interactive Weather Map
Tropical Storm Tracking
New forecast layout! Learn more

10-Day Weather Forecast

Advertisements
Track Severe Weather on mobile